Nearby METAR Reports

 

KISP - Islip, New York, USA
Distance from station: SW 4mi, 6km
Updated: Sat, 11/25/2017 1:56 am EST
Clear
Clear
 Wind from W
Wind: W 3 mph , 6 km/h
Temperature: 37°F , 3°C
Dew Point: 34°F , 1°C
Humidity: 87%
Barometer: 29.91 inHg , 1012.9 hPa
Clouds: Clear
Visibility: 10 miles , 16 km
2017/11/25 06:56 KISP 250656Z AUTO 26003KT 10SM CLR 03/01 A2991 RMK AO2 SLP129 T00330011
KHWV - Shirley, New York, USA
Distance from station: E 10mi, 16km
Updated: Sat, 11/25/2017 1:56 am EST
Clear
Clear
 Wind from WNW
Wind: WNW 3 mph , 6 km/h
Temperature: 37°F , 3°C
Dew Point: 36°F , 2°C
Humidity: 93%
Barometer: 29.92 inHg , 1013.2 hPa
Clouds: Clear
Visibility: 10 miles , 16 km
2017/11/25 06:56 KHWV 250656Z AUTO 29003KT 10SM CLR 03/02 A2992 RMK AO2 SLP132 T00280017
 
KFRG - Farmingdale, New York, USA
Distance from station: WSW 20mi, 33km
Updated: Sat, 11/25/2017 1:53 am EST
Clear
Clear
 Wind from W
Wind: W 3 mph , 6 km/h
Temperature: 39°F , 4°C
Dew Point: 32°F , 0°C
Humidity: 75%
Barometer: 29.91 inHg , 1012.9 hPa
Clouds: Clear
Visibility: 10 miles , 16 km
2017/11/25 06:53 KFRG 250653Z AUTO 26003KT 10SM CLR 04/00 A2991 RMK AO2 SLP129 T00440000
KBDR - Bridgeport, Connecticut, USA
Distance from station: N 23mi, 37km
Updated: Sat, 11/25/2017 1:52 am EST
Clear
Clear
 Wind from W
Wind: W 3 mph , 6 km/h
Temperature: 41°F , 5°C
Dew Point: 30°F , -1°C
Humidity: 66%
Barometer: 29.91 inHg , 1012.9 hPa
Clouds: Clear
Visibility: 10 miles , 16 km
2017/11/25 06:52 KBDR 250652Z AUTO 28003KT 10SM CLR 05/M01 A2991 RMK AO2 SLP127 T00501006
 
KFOK - Westhampton Beac, New York, USA
Distance from station: E 23mi, 37km
Updated: Sat, 11/25/2017 1:53 am EST
Clear
Clear
 Wind from calm
Wind: Calm
Temperature: 28°F , -2°C
Dew Point: 25°F , -4°C
Humidity: 86%
Barometer: 29.93 inHg , 1013.5 hPa
Clouds: Clear
Visibility: 10 miles , 16 km
2017/11/25 06:53 KFOK 250653Z AUTO 00000KT 10SM CLR M02/M04 A2993 RMK AO2 SLP134 T10171039
KHVN - New Haven/Tweed, Connecticut, USA
Distance from station: NNE 31mi, 50km
Updated: Sat, 11/25/2017 1:53 am EST
Clear
Clear
 Wind from W
Wind: W 6 mph , 9 km/h
Temperature: 46°F , 8°C
Wind Chill: 43°F , 6°C
Dew Point: 34°F , 1°C
Humidity: 62%
Barometer: 29.91 inHg , 1012.9 hPa
Clouds: Clear
Visibility: 10 miles , 16 km
2017/11/25 06:53 KHVN 250653Z AUTO 26005KT 10SM CLR 08/01 A2991 RMK AO2 SLP126 T00780011
 
KHPN - White Plains, New York, USA
Distance from station: WNW 37mi, 60km
Updated: Sat, 11/25/2017 1:56 am EST
Clear
Clear
 Wind from calm
Wind: Calm
Temperature: 39°F , 4°C
Dew Point: 27°F , -3°C
Humidity: 61%
Barometer: 29.88 inHg , 1011.9 hPa
Clouds: Clear
Visibility: 10 miles , 16 km
2017/11/25 06:56 KHPN 250656Z 00000KT 10SM CLR 04/M03 A2988 RMK AO2 SLP123 T00441028 $
KJFK - Nyc/Jfk Arpt, New York, USA
Distance from station: WSW 40mi, 64km
Updated: Sat, 11/25/2017 1:51 am EST
Clear
Clear
 Wind from WSW
Wind: WSW 5 mph , 7 km/h
Temperature: 39°F , 4°C
Wind Chill: 35°F , 2°C
Dew Point: 34°F , 1°C
Humidity: 81%
Barometer: 29.92 inHg , 1013.2 hPa
Clouds: Clear
Visibility: 10 miles , 16 km
2017/11/25 06:51 KJFK 250651Z 24004KT 10SM CLR 04/01 A2992 RMK AO2 SLP132 T00440011
 
KDXR - Danbury, Connecticut, USA
Distance from station: NNW 42mi, 68km
Updated: Sat, 11/25/2017 1:53 am EST
Clear
Clear
 Wind from calm
Wind: Calm
Temperature: 39°F , 4°C
Dew Point: 27°F , -3°C
Humidity: 61%
Barometer: 29.89 inHg , 1012.2 hPa
Clouds: Clear
Visibility: 9 miles , 14 km
2017/11/25 06:53 KDXR 250653Z AUTO 00000KT 9SM CLR 04/M03 A2989 RMK AO2 SLP122 T00391028
KHTO - East Hampton, New York, USA
Distance from station: E 43mi, 69km
Updated: Sat, 11/25/2017 2:35 am EST
Clear
Clear
 Wind from calm
Wind: Calm
Temperature: 30°F , -1°C
Dew Point: 30°F , -1°C
Humidity: 100%
Barometer: 29.90 inHg , 1012.5 hPa
Clouds: Clear
Visibility: 10 miles , 16 km
2017/11/25 07:35 KHTO 250735Z AUTO 00000KT 10SM CLR M01/M01 A2990 RMK AO2 T10111015
 
KOXC - Oxford/Waterbury, Connecticut, USA
Distance from station: N 43mi, 70km
Updated: Sat, 11/25/2017 1:51 am EST
Clear
Clear
 Wind from SW
Wind: SW 5 mph , 7 km/h
Temperature: 37°F , 3°C
Wind Chill: 33°F , 1°C
Dew Point: 30°F , -1°C
Humidity: 75%
Barometer: 29.88 inHg , 1011.9 hPa
Clouds: Clear
Visibility: 10 miles , 16 km
2017/11/25 06:51 KOXC 250651Z AUTO 22004KT 10SM CLR 03/M01 A2988 RMK AO2 SLP136 T00331011
KLGA - Nyc/La Guardia, New York, USA
Distance from station: W 44mi, 70km
Updated: Sat, 11/25/2017 1:51 am EST
Clear
Clear
 Wind from SW
Wind: SW 7 mph , 11 km/h
Temperature: 45°F , 7°C
Wind Chill: 41°F , 5°C
Dew Point: 30°F , -1°C
Humidity: 57%
Barometer: 29.90 inHg , 1012.5 hPa
Clouds: Clear
Visibility: 10 miles , 16 km
2017/11/25 06:51 KLGA 250651Z 22006KT 10SM CLR 07/M01 A2990 RMK AO2 SLP123 T00671006
 
KSNC - Chester, Connecticut, USA
Distance from station: NE 47mi, 76km
Updated: Sat, 11/25/2017 2:35 am EST
Clear
Clear
 Wind from WSW
Wind: WSW 5 mph , 7 km/h
Temperature: 41°F , 5°C
Wind Chill: 38°F , 3°C
Dew Point: 34°F , 1°C
Humidity: 76%
Barometer: 29.89 inHg , 1012.2 hPa
Clouds: Clear
Visibility: 10 miles , 16 km
2017/11/25 07:35 KSNC 250735Z AUTO 24004KT 10SM CLR 05/01 A2989 RMK AO2
KMMK - Meriden, Connecticut, USA
Distance from station: NNE 48mi, 77km
Updated: Sat, 11/25/2017 1:53 am EST
Clear
Clear
 Wind from calm
Wind: Calm
Temperature: 27°F , -3°C
Dew Point: 27°F , -3°C
Humidity: 100%
Barometer: 29.90 inHg , 1012.5 hPa
Clouds: Clear
Visibility: 8 miles , 13 km
2017/11/25 06:53 KMMK 250653Z AUTO 00000KT 8SM CLR M03/M03 A2990 RMK AO2 SLP126 I1000 T10281033
 
KNYC - Nyc/Central Park, New York, USA
Distance from station: W 48mi, 77km
Updated: Sat, 11/25/2017 1:51 am EST
Clear
Clear
 Wind from varies
Wind: varies 6 mph , 9 km/h
Temperature: 45°F , 7°C
Wind Chill: 42°F , 6°C
Dew Point: 30°F , -1°C
Humidity: 57%
Barometer: 29.92 inHg , 1013.2 hPa
Clouds: Clear
Visibility: 10 miles , 16 km
2017/11/25 06:51 KNYC 250651Z AUTO VRB05KT 10SM CLR 07/M01 A2992 RMK AO2 SLP123 T00671006 $